createdAt,value
2018-01-14T00:00:20.908Z,31.50
2018-01-14T00:02:49.040Z,29.02
2018-01-14T00:05:17.932Z,33.92
2018-01-14T00:07:46.832Z,38.00
2018-01-14T00:10:15.734Z,33.70
2018-01-14T00:12:43.856Z,35.75
2018-01-14T00:15:11.997Z,29.37
2018-01-14T00:17:40.123Z,32.80
2018-01-14T00:20:08.279Z,31.17
2018-01-14T00:22:36.401Z,29.25
2018-01-14T00:25:04.549Z,32.03
2018-01-14T00:27:32.665Z,29.37
2018-01-14T00:30:00.809Z,31.80
2018-01-14T00:32:28.924Z,32.45
2018-01-14T00:34:57.065Z,28.83
2018-01-14T00:37:25.205Z,30.05
2018-01-14T00:39:53.347Z,32.72
2018-01-14T00:42:21.490Z,33.10
2018-01-14T00:44:49.612Z,31.15
2018-01-14T00:47:18.497Z,30.17
2018-01-14T00:49:47.388Z,32.38
2018-01-14T00:52:16.301Z,33.47
2018-01-14T00:54:44.438Z,29.12
2018-01-14T00:57:12.568Z,31.02
2018-01-14T00:59:40.689Z,31.20
2018-01-14T01:02:09.580Z,33.97
2018-01-14T01:04:38.461Z,33.35
2018-01-14T01:07:07.537Z,31.40
2018-01-14T01:09:35.648Z,33.50
2018-01-14T01:12:03.764Z,30.12
2018-01-14T01:14:31.917Z,34.00
2018-01-14T01:17:00.052Z,31.95
2018-01-14T01:19:28.948Z,30.48
2018-01-14T01:21:57.077Z,35.90
2018-01-14T01:24:25.211Z,30.58
2018-01-14T01:26:53.324Z,29.77
2018-01-14T01:29:21.469Z,33.35
2018-01-14T01:31:49.588Z,31.40
2018-01-14T01:34:18.486Z,35.65
2018-01-14T01:36:47.369Z,29.30
2018-01-14T01:39:16.446Z,34.67
2018-01-14T01:41:44.565Z,31.92
2018-01-14T01:44:12.686Z,30.27
2018-01-14T01:46:40.816Z,31.02
2018-01-14T01:49:08.938Z,31.85
2018-01-14T01:51:37.082Z,33.63
2018-01-14T01:54:05.196Z,31.90
2018-01-14T01:56:34.096Z,32.35
2018-01-14T01:59:02.233Z,30.88
2018-01-14T02:01:30.374Z,31.10
2018-01-14T02:03:58.501Z,33.72
2018-01-14T02:06:27.400Z,32.88
2018-01-14T02:08:56.292Z,31.25
2018-01-14T02:11:24.678Z,34.13
2018-01-14T02:13:52.802Z,35.22
2018-01-14T02:16:20.929Z,30.98
2018-01-14T02:18:49.053Z,32.38
2018-01-14T02:21:17.218Z,30.45
2018-01-14T02:23:48.166Z,28.87
2018-01-14T02:26:16.286Z,29.70
2018-01-14T02:28:44.421Z,29.02
2018-01-14T02:31:12.545Z,31.45
2018-01-14T02:33:40.681Z,31.35
2018-01-14T02:36:08.808Z,32.75
2018-01-14T02:38:36.963Z,28.52
2018-01-14T02:41:05.079Z,27.70
2018-01-14T02:43:33.218Z,27.60
2018-01-14T02:46:01.342Z,30.55
2018-01-14T02:48:29.467Z,28.55
2018-01-14T02:50:57.613Z,29.37
2018-01-14T02:53:25.773Z,29.92
2018-01-14T02:55:53.909Z,28.70
2018-01-14T02:58:22.796Z,26.87
2018-01-14T03:00:51.701Z,27.35
2018-01-14T03:03:19.841Z,28.35
2018-01-14T03:05:47.980Z,24.50
2018-01-14T03:08:16.111Z,23.70
2018-01-14T03:10:44.242Z,25.55
2018-01-14T03:13:12.389Z,23.05
2018-01-14T03:15:40.554Z,25.35
2018-01-14T03:18:08.689Z,23.65
2018-01-14T03:20:37.649Z,23.02
2018-01-14T03:23:05.775Z,23.85
2018-01-14T03:25:33.901Z,22.75
2018-01-14T03:28:02.029Z,25.48
2018-01-14T03:30:30.147Z,23.23
2018-01-14T03:32:58.272Z,25.02
2018-01-14T03:35:26.397Z,23.83
2018-01-14T03:37:54.530Z,23.38
2018-01-14T03:40:22.648Z,20.80
2018-01-14T03:42:51.893Z,23.52
2018-01-14T03:45:20.129Z,23.77
2018-01-14T03:47:48.269Z,24.40
2018-01-14T03:50:16.436Z,24.65
2018-01-14T03:52:44.583Z,22.70
2018-01-14T03:55:12.708Z,22.10
2018-01-14T03:57:41.609Z,21.62
2018-01-14T04:00:10.513Z,21.80
2018-01-14T04:02:38.632Z,21.15
2018-01-14T04:05:06.764Z,21.60
2018-01-14T04:07:34.884Z,23.33
2018-01-14T04:10:03.811Z,22.13
2018-01-14T04:12:32.004Z,21.95
2018-01-14T04:15:00.868Z,23.00
2018-01-14T04:17:28.996Z,21.30
2018-01-14T04:19:57.193Z,23.15
2018-01-14T04:22:25.319Z,20.83
2018-01-14T04:24:54.220Z,22.52
2018-01-14T04:27:22.421Z,22.52
2018-01-14T04:29:50.557Z,22.13
2018-01-14T04:32:19.467Z,22.50
2018-01-14T04:34:47.592Z,23.77
2018-01-14T04:37:15.722Z,24.17
2018-01-14T04:39:43.849Z,21.27
2018-01-14T04:42:11.994Z,21.58
2018-01-14T04:44:40.114Z,22.23
2018-01-14T04:47:08.255Z,24.95
2018-01-14T04:49:36.368Z,25.98
2018-01-14T04:52:04.508Z,26.10
2018-01-14T04:54:32.645Z,29.58
2018-01-14T04:57:00.762Z,20.42
2018-01-14T04:59:29.657Z,23.27
2018-01-14T05:01:57.777Z,22.15
2018-01-14T05:04:25.908Z,19.80
2018-01-14T05:06:54.029Z,20.85
2018-01-14T05:09:22.169Z,22.05
2018-01-14T05:11:51.056Z,22.35
2018-01-14T05:14:19.955Z,20.02
2018-01-14T05:16:48.860Z,20.15
2018-01-14T05:19:17.956Z,22.85
2018-01-14T05:22:01.891Z,21.00
2018-01-14T05:24:30.223Z,21.50
2018-01-14T05:26:58.364Z,21.17
2018-01-14T05:29:26.498Z,21.75
2018-01-14T05:31:55.388Z,19.95
2018-01-14T05:34:24.296Z,22.70
2018-01-14T05:36:52.414Z,21.75
2018-01-14T05:39:20.555Z,19.42
2018-01-14T05:41:48.689Z,19.83
2018-01-14T05:44:17.573Z,21.50
2018-01-14T05:46:46.476Z,20.37
2018-01-14T05:49:14.612Z,21.23
2018-01-14T05:51:42.747Z,20.70
2018-01-14T05:54:10.864Z,19.80
2018-01-14T05:56:39.004Z,21.33
2018-01-14T05:59:07.138Z,20.65
2018-01-14T06:01:35.316Z,22.95
2018-01-14T06:04:03.449Z,19.98
2018-01-14T06:06:31.569Z,18.30
2018-01-14T06:08:59.716Z,21.70
2018-01-14T06:11:28.596Z,19.98
2018-01-14T06:13:57.497Z,20.00
2018-01-14T06:16:26.372Z,19.62
2018-01-14T06:18:55.282Z,22.25
2018-01-14T06:21:23.413Z,20.98
2018-01-14T06:23:53.073Z,21.12
2018-01-14T06:26:21.193Z,20.42
2018-01-14T06:28:49.334Z,22.08
2018-01-14T06:31:17.644Z,21.75
2018-01-14T06:33:45.964Z,20.23
2018-01-14T06:36:14.096Z,23.10
2018-01-14T06:38:42.220Z,24.87
2018-01-14T06:41:10.343Z,22.05
2018-01-14T06:43:39.228Z,20.55
2018-01-14T06:46:07.384Z,21.92
2018-01-14T06:48:35.505Z,22.67
2018-01-14T06:51:03.759Z,23.30
2018-01-14T06:53:32.660Z,20.37
2018-01-14T06:56:01.570Z,23.62
2018-01-14T06:58:29.686Z,21.37
2018-01-14T07:00:57.870Z,20.92
2018-01-14T07:03:25.956Z,19.35
2018-01-14T07:05:54.854Z,22.50
2018-01-14T07:08:23.758Z,22.25
2018-01-14T07:10:51.882Z,20.80
2018-01-14T07:13:20.013Z,19.58
2018-01-14T07:15:48.129Z,22.40
2018-01-14T07:18:16.269Z,20.12
2018-01-14T07:20:44.385Z,18.75
2018-01-14T07:23:13.304Z,22.37
2018-01-14T07:25:41.425Z,22.80
2018-01-14T07:28:09.558Z,22.80
2018-01-14T07:30:37.697Z,20.33
2018-01-14T07:33:08.515Z,22.58
2018-01-14T07:35:37.697Z,20.10
2018-01-14T07:38:05.808Z,21.10
2018-01-14T07:40:33.945Z,19.45
2018-01-14T07:43:02.077Z,21.92
2018-01-14T07:45:30.205Z,21.30
2018-01-14T07:47:59.103Z,21.02
2018-01-14T07:50:28.006Z,21.15
2018-01-14T07:52:56.127Z,18.83
2018-01-14T07:55:24.268Z,19.45
2018-01-14T07:57:52.398Z,20.67
2018-01-14T08:00:20.556Z,21.52
2018-01-14T08:02:48.687Z,20.65
2018-01-14T08:05:16.801Z,21.02
2018-01-14T08:07:45.713Z,22.25
2018-01-14T08:10:13.834Z,21.30
2018-01-14T08:12:41.964Z,19.98
2018-01-14T08:15:10.102Z,19.45
2018-01-14T08:17:38.242Z,20.67
2018-01-14T08:20:06.386Z,21.25
2018-01-14T08:22:34.526Z,21.00
2018-01-14T08:25:02.728Z,19.85
2018-01-14T08:27:30.875Z,20.73
2018-01-14T08:29:58.994Z,19.23
2018-01-14T08:32:27.138Z,19.65
2018-01-14T08:34:55.284Z,20.42
2018-01-14T08:37:23.396Z,18.50
2018-01-14T08:39:51.529Z,18.85
2018-01-14T08:42:20.417Z,19.87
2018-01-14T08:44:49.322Z,21.73
2018-01-14T08:47:17.452Z,22.50
2018-01-14T08:49:45.588Z,20.05
2018-01-14T08:52:13.712Z,18.87
2018-01-14T08:54:41.864Z,19.67
2018-01-14T08:57:09.980Z,19.10
2018-01-14T08:59:38.120Z,18.77
2018-01-14T09:02:07.014Z,18.77
2018-01-14T09:04:35.215Z,17.75
2018-01-14T09:07:03.428Z,19.60
2018-01-14T09:09:31.557Z,16.35
2018-01-14T09:11:59.696Z,17.95
2018-01-14T09:14:28.588Z,17.95
2018-01-14T09:16:57.524Z,19.37
2018-01-14T09:19:25.654Z,17.35
2018-01-14T09:21:54.599Z,19.10
2018-01-14T09:24:22.728Z,17.90
2018-01-14T09:26:50.882Z,18.37
2018-01-14T09:29:19.005Z,15.93
2018-01-14T09:31:47.150Z,19.92
2018-01-14T09:34:15.271Z,17.37
2018-01-14T09:36:43.428Z,15.20
2018-01-14T09:39:13.217Z,17.50
2018-01-14T09:41:41.348Z,16.67
2018-01-14T09:44:09.489Z,16.87
2018-01-14T09:46:37.621Z,16.60
2018-01-14T09:49:05.765Z,17.02
2018-01-14T09:51:33.896Z,16.83
2018-01-14T09:54:02.145Z,16.95
2018-01-14T09:56:30.272Z,16.40
2018-01-14T09:58:58.406Z,17.12
2018-01-14T10:01:26.536Z,14.38
2018-01-14T10:03:55.453Z,13.60
2018-01-14T10:06:23.594Z,15.85
2018-01-14T10:08:51.736Z,14.43
2018-01-14T10:11:19.858Z,14.25
2018-01-14T10:13:48.001Z,13.57
2018-01-14T10:16:16.790Z,13.50
2018-01-14T10:18:44.920Z,12.35
2018-01-14T10:21:13.432Z,12.32
2018-01-14T10:23:41.550Z,13.30
2018-01-14T10:26:09.735Z,12.88
2018-01-14T10:28:37.865Z,13.60
2018-01-14T10:31:06.853Z,13.02
2018-01-14T10:33:35.018Z,12.95
2018-01-14T10:36:03.165Z,11.20
2018-01-14T10:38:31.304Z,12.30
2018-01-14T10:40:59.456Z,12.23
2018-01-14T10:43:27.597Z,12.15
2018-01-14T10:45:55.765Z,12.25
2018-01-14T10:48:24.941Z,11.75
2018-01-14T10:50:53.086Z,13.10
2018-01-14T10:53:21.213Z,11.95
2018-01-14T10:55:50.117Z,13.20
2018-01-14T10:58:19.018Z,12.30
2018-01-14T11:00:52.718Z,13.25
2018-01-14T11:03:20.860Z,11.85
2018-01-14T11:05:49.004Z,12.50
2018-01-14T11:08:17.151Z,11.85
2018-01-14T11:10:45.312Z,11.65
2018-01-14T11:13:13.516Z,13.25
2018-01-14T11:15:41.664Z,12.45
2018-01-14T11:18:09.804Z,14.02
2018-01-14T11:20:38.722Z,13.60
2018-01-14T11:23:07.213Z,12.52
2018-01-14T11:25:35.360Z,12.20
2018-01-14T11:28:03.508Z,11.98
2018-01-14T11:30:31.760Z,13.35
2018-01-14T11:32:59.924Z,14.87
2018-01-14T11:35:28.057Z,12.35
2018-01-14T11:37:56.201Z,13.52
2018-01-14T11:40:25.155Z,12.60
2018-01-14T11:42:53.257Z,11.63
2018-01-14T11:45:22.157Z,12.35
2018-01-14T11:47:51.069Z,11.63
2018-01-14T11:50:19.305Z,11.85
2018-01-14T11:52:47.491Z,12.65
2018-01-14T11:55:16.015Z,12.50
2018-01-14T11:57:44.157Z,11.50
2018-01-14T12:00:12.280Z,11.90
2018-01-14T12:02:40.573Z,12.27
2018-01-14T12:05:08.691Z,13.68
2018-01-14T12:07:36.884Z,14.25
2018-01-14T12:10:05.012Z,13.95
2018-01-14T12:12:33.912Z,13.38
2018-01-14T12:15:02.080Z,13.60
2018-01-14T12:17:30.244Z,12.48
2018-01-14T12:19:59.134Z,13.10
2018-01-14T12:22:28.061Z,13.45
2018-01-14T12:24:56.201Z,16.25
2018-01-14T12:27:25.468Z,13.00
2018-01-14T12:29:53.601Z,13.82
2018-01-14T12:32:21.748Z,12.52
2018-01-14T12:34:53.579Z,12.63
2018-01-14T12:37:22.484Z,14.65
2018-01-14T12:39:50.639Z,11.80
2018-01-14T12:42:18.776Z,14.13
2018-01-14T12:44:46.904Z,12.20
2018-01-14T12:47:15.062Z,11.60
2018-01-14T12:49:44.067Z,12.82
2018-01-14T12:52:12.250Z,11.40
2018-01-14T12:54:40.371Z,11.05
2018-01-14T12:57:08.497Z,12.48
2018-01-14T12:59:36.642Z,12.32
2018-01-14T13:02:05.532Z,12.60
2018-01-14T13:04:34.440Z,13.27
2018-01-14T13:07:02.614Z,11.93
2018-01-14T13:09:30.718Z,11.73
2018-01-14T13:11:59.176Z,11.68
2018-01-14T13:14:27.366Z,11.25
2018-01-14T13:16:55.498Z,12.10
2018-01-14T13:19:23.672Z,11.40
2018-01-14T13:21:51.847Z,12.77
2018-01-14T13:24:20.744Z,11.75
2018-01-14T13:26:48.873Z,11.75
2018-01-14T13:29:17.014Z,13.45
2018-01-14T13:31:45.248Z,12.07
2018-01-14T13:34:13.446Z,12.55
2018-01-14T13:36:41.632Z,12.35
2018-01-14T13:39:09.760Z,12.48
2018-01-14T13:41:37.895Z,13.75
2018-01-14T13:44:06.041Z,11.82
2018-01-14T13:46:34.528Z,12.98
2018-01-14T13:49:02.662Z,10.18
2018-01-14T13:51:30.797Z,11.80
2018-01-14T13:53:58.954Z,10.88
2018-01-14T13:56:27.173Z,10.43
2018-01-14T13:58:56.130Z,9.93
2018-01-14T14:01:24.292Z,12.95
2018-01-14T14:03:53.271Z,13.93
2018-01-14T14:06:21.466Z,13.82
2018-01-14T14:08:49.602Z,13.48
2018-01-14T14:11:17.736Z,12.30
2018-01-14T14:13:46.636Z,11.90
2018-01-14T14:16:14.839Z,14.27
2018-01-14T14:18:42.954Z,12.27
2018-01-14T14:21:11.140Z,13.38
2018-01-14T14:23:40.036Z,14.77
2018-01-14T14:26:08.986Z,11.50
2018-01-14T14:28:37.961Z,12.98
2018-01-14T14:31:06.146Z,11.07
2018-01-14T14:33:34.633Z,11.77
2018-01-14T14:36:02.768Z,12.52
2018-01-14T14:38:30.899Z,10.57
2018-01-14T14:41:00.579Z,12.10
2018-01-14T14:43:28.736Z,10.07
2018-01-14T14:45:56.900Z,12.30
2018-01-14T14:48:25.084Z,13.00
2018-01-14T14:50:53.300Z,11.60
2018-01-14T14:53:22.196Z,11.85
2018-01-14T14:55:51.105Z,11.38
2018-01-14T14:58:19.236Z,10.82
2018-01-14T15:00:47.415Z,16.48
2018-01-14T15:03:15.574Z,11.77
2018-01-14T15:05:43.702Z,14.13
2018-01-14T15:08:11.824Z,19.90
2018-01-14T15:10:40.021Z,12.48
2018-01-14T15:13:08.896Z,27.98
2018-01-14T15:15:37.806Z,18.55
2018-01-14T15:18:05.960Z,20.15
2018-01-14T15:20:34.961Z,9.77
2018-01-14T15:23:03.081Z,11.30
2018-01-14T15:25:31.244Z,11.07
2018-01-14T15:27:59.430Z,13.82
2018-01-14T15:30:27.549Z,12.00
2018-01-14T15:32:55.683Z,11.12
2018-01-14T15:35:23.862Z,10.60
2018-01-14T15:37:52.794Z,11.57
2018-01-14T15:40:21.690Z,27.62
2018-01-14T15:42:49.822Z,11.75
2018-01-14T15:45:17.961Z,12.00
2018-01-14T15:47:46.077Z,12.10
2018-01-14T15:50:14.234Z,10.60
2018-01-14T15:52:42.353Z,10.23
2018-01-14T15:55:10.632Z,12.45
2018-01-14T15:57:38.774Z,10.90
2018-01-14T16:00:07.356Z,11.02
2018-01-14T16:02:36.264Z,12.18
2018-01-14T16:05:04.431Z,11.10
2018-01-14T16:07:33.319Z,12.43
2018-01-14T16:10:02.977Z,12.07
2018-01-14T16:12:31.101Z,11.07
2018-01-14T16:14:59.258Z,11.68
2018-01-14T16:17:27.428Z,11.95
2018-01-14T16:19:56.318Z,13.38
2018-01-14T16:22:25.229Z,13.52
2018-01-14T16:24:53.397Z,14.00
2018-01-14T16:27:35.575Z,14.75
2018-01-14T16:30:10.030Z,14.35
2018-01-14T16:32:38.840Z,14.90
2018-01-14T16:35:07.037Z,14.90
2018-01-14T16:37:35.399Z,15.13
2018-01-14T16:40:04.633Z,14.45
2018-01-14T16:42:32.786Z,15.10
2018-01-14T16:45:00.909Z,15.75
2018-01-14T16:47:29.049Z,15.57
2018-01-14T16:49:57.986Z,25.05
2018-01-14T16:52:26.110Z,19.42
2018-01-14T16:54:55.034Z,14.93
2018-01-14T16:57:23.207Z,17.37
2018-01-14T16:59:51.327Z,22.85
2018-01-14T17:02:19.464Z,19.05
2018-01-14T17:04:47.588Z,16.62
2018-01-14T17:07:16.828Z,21.50
2018-01-14T17:09:45.045Z,24.65
2018-01-14T17:12:13.182Z,26.42
2018-01-14T17:14:41.585Z,23.50
2018-01-14T17:17:09.834Z,26.70
2018-01-14T17:19:38.182Z,27.05
2018-01-14T17:22:07.073Z,29.02
2018-01-14T17:24:35.234Z,25.25
2018-01-14T17:27:04.128Z,25.60
2018-01-14T17:29:32.254Z,21.50
2018-01-14T17:32:00.393Z,19.40
2018-01-14T17:34:28.509Z,18.17
2018-01-14T17:36:56.705Z,17.87
2018-01-14T17:39:24.874Z,21.08
2018-01-14T17:41:54.010Z,18.02
2018-01-14T17:44:22.112Z,15.90
2018-01-14T17:46:50.290Z,17.35
2018-01-14T17:49:18.393Z,18.48
2018-01-14T17:51:46.771Z,17.50
2018-01-14T17:54:15.649Z,20.85
2018-01-14T17:56:44.549Z,18.85
2018-01-14T17:59:12.735Z,20.15
2018-01-14T18:01:41.098Z,19.15
2018-01-14T18:04:09.242Z,17.62
2018-01-14T18:06:37.409Z,19.77
2018-01-14T18:09:05.562Z,20.73
2018-01-14T18:11:33.697Z,21.55
2018-01-14T18:14:01.899Z,21.92
2018-01-14T18:16:30.034Z,23.40
2018-01-14T18:18:59.027Z,27.17
2018-01-14T18:21:28.232Z,25.83
2018-01-14T18:23:56.386Z,26.37
2018-01-14T18:26:25.285Z,31.40
2018-01-14T18:28:53.647Z,35.22
2018-01-14T18:31:22.985Z,30.12
2018-01-14T18:33:51.135Z,28.70
2018-01-14T18:36:19.505Z,25.92
2018-01-14T18:38:48.675Z,29.27
2018-01-14T18:41:16.840Z,29.58
2018-01-14T18:43:45.210Z,22.85
2018-01-14T18:46:13.342Z,20.48
2018-01-14T18:48:41.474Z,22.90
2018-01-14T18:51:10.401Z,24.45
2018-01-14T18:53:38.548Z,24.05
2018-01-14T18:56:06.678Z,25.35
2018-01-14T18:58:34.919Z,23.62
2018-01-14T19:01:03.076Z,23.15
2018-01-14T19:03:31.250Z,22.17
2018-01-14T19:05:59.408Z,19.90
2018-01-14T19:08:27.552Z,20.70
2018-01-14T19:10:56.540Z,22.15
2018-01-14T19:13:24.736Z,19.67
2018-01-14T19:15:53.708Z,21.17
2018-01-14T19:18:27.516Z,19.52
2018-01-14T19:20:57.948Z,23.12
2018-01-14T19:23:28.611Z,28.02
2018-01-14T19:25:57.544Z,26.60
2018-01-14T19:28:25.669Z,27.83
2018-01-14T19:30:54.031Z,26.62
2018-01-14T19:33:23.930Z,24.73
2018-01-14T19:35:52.824Z,23.00
2018-01-14T19:38:22.775Z,23.90
2018-01-14T19:40:53.700Z,26.75
2018-01-14T19:43:22.142Z,23.55
2018-01-14T19:45:51.554Z,24.85
2018-01-14T19:48:21.294Z,27.83
2018-01-14T19:50:49.459Z,42.97
2018-01-14T19:53:18.487Z,38.47
2018-01-14T19:55:47.891Z,45.08
2018-01-14T19:58:17.519Z,50.35
2018-01-14T20:00:48.134Z,52.97
2018-01-14T20:03:17.866Z,51.63
2018-01-14T20:05:48.292Z,49.67
2018-01-14T20:08:17.566Z,43.65
2018-01-14T20:10:48.059Z,37.97
2018-01-14T20:13:16.492Z,31.15
2018-01-14T20:15:45.926Z,30.05
2018-01-14T20:18:14.877Z,25.88
2018-01-14T20:20:43.040Z,23.60
2018-01-14T20:23:11.224Z,24.00
2018-01-14T20:25:39.347Z,30.20
2018-01-14T20:28:07.526Z,34.80
2018-01-14T20:30:35.783Z,34.33
2018-01-14T20:33:03.974Z,30.55
2018-01-14T20:35:32.154Z,34.00
2018-01-14T20:38:00.400Z,33.10
2018-01-14T20:40:29.405Z,29.83
2018-01-14T20:42:57.616Z,27.55
2018-01-14T20:45:25.793Z,28.20
2018-01-14T20:47:53.955Z,27.45
2018-01-14T20:50:22.148Z,24.12
2018-01-14T20:52:50.329Z,23.20
2018-01-14T20:55:18.491Z,21.05
2018-01-14T20:57:46.632Z,26.12
2018-01-14T21:00:15.043Z,25.00
2018-01-14T21:02:43.169Z,30.62
2018-01-14T21:05:11.360Z,23.15
2018-01-14T21:07:39.592Z,22.80
2018-01-14T21:10:08.517Z,20.23
2018-01-14T21:12:36.686Z,21.00
2018-01-14T21:15:04.852Z,24.65
2018-01-14T21:17:33.040Z,20.33
2018-01-14T21:20:01.263Z,24.05
2018-01-14T21:22:29.453Z,21.60
2018-01-14T21:24:58.369Z,19.80
2018-01-14T21:27:26.568Z,20.27
2018-01-14T21:29:54.855Z,19.20
2018-01-14T21:32:23.012Z,19.45
2018-01-14T21:34:51.206Z,21.70
2018-01-14T21:37:19.429Z,20.50
2018-01-14T21:39:48.335Z,19.62
2018-01-14T21:42:16.504Z,20.37
2018-01-14T21:44:44.691Z,23.05
2018-01-14T21:47:12.857Z,21.45
2018-01-14T21:49:40.984Z,23.83
2018-01-14T21:52:09.118Z,23.65
2018-01-14T21:54:37.264Z,25.42
2018-01-14T21:57:05.400Z,21.25
2018-01-14T21:59:33.682Z,21.08
2018-01-14T22:02:01.847Z,23.15
2018-01-14T22:04:30.029Z,23.80
2018-01-14T22:06:58.189Z,25.25
2018-01-14T22:09:26.368Z,21.15
2018-01-14T22:11:54.480Z,23.15
2018-01-14T22:14:22.623Z,20.70
2018-01-14T22:16:50.816Z,21.15
2018-01-14T22:19:18.986Z,22.65
2018-01-14T22:21:47.165Z,21.48
2018-01-14T22:24:15.310Z,21.80
2018-01-14T22:26:43.479Z,21.02
2018-01-14T22:29:11.702Z,22.42
2018-01-14T22:31:39.932Z,22.23
2018-01-14T22:34:08.116Z,21.20
2018-01-14T22:36:36.242Z,20.10
2018-01-14T22:39:04.428Z,21.42
2018-01-14T22:41:32.587Z,19.25
2018-01-14T22:44:01.531Z,20.30
2018-01-14T22:46:29.674Z,20.45
2018-01-14T22:48:57.866Z,22.30
2018-01-14T22:51:26.315Z,23.33
2018-01-14T22:53:54.455Z,23.77
2018-01-14T22:56:23.389Z,22.50
2018-01-14T22:58:51.559Z,21.25
2018-01-14T23:01:19.714Z,23.70
2018-01-14T23:03:47.850Z,26.75
2018-01-14T23:06:16.065Z,21.15
2018-01-14T23:08:44.579Z,20.05
2018-01-14T23:11:12.700Z,20.62
2018-01-14T23:13:40.852Z,24.30
2018-01-14T23:16:08.989Z,22.42
2018-01-14T23:18:37.138Z,25.35
2018-01-14T23:21:06.828Z,19.75
2018-01-14T23:23:34.972Z,19.50
2018-01-14T23:26:03.117Z,16.20
2018-01-14T23:28:31.243Z,18.50
2018-01-14T23:30:59.392Z,18.15
2018-01-14T23:33:28.314Z,18.17
2018-01-14T23:35:56.654Z,21.05
2018-01-14T23:38:24.774Z,27.05
2018-01-14T23:40:52.908Z,21.73
2018-01-14T23:43:21.117Z,24.33
2018-01-14T23:45:49.246Z,25.90
2018-01-14T23:48:18.156Z,26.73
2018-01-14T23:50:46.397Z,29.27
2018-01-14T23:53:14.537Z,23.12
2018-01-14T23:55:42.669Z,28.48
2018-01-14T23:58:10.808Z,32.08
